sensor_id;sensor_type;location;lat;lon;timestamp;temperature;humidity
24338;DHT22;12457;50.832;4.346;2022-12-05T00:02:01;2.40;99.90
24338;DHT22;12457;50.832;4.346;2022-12-05T00:04:27;2.50;99.90
24338;DHT22;12457;50.832;4.346;2022-12-05T00:06:52;2.50;99.90
24338;DHT22;12457;50.832;4.346;2022-12-05T00:09:18;2.60;99.90
24338;DHT22;12457;50.832;4.346;2022-12-05T00:11:44;2.50;99.90
24338;DHT22;12457;50.832;4.346;2022-12-05T00:14:10;2.50;99.90
24338;DHT22;12457;50.832;4.346;2022-12-05T00:16:37;2.50;99.90
24338;DHT22;12457;50.832;4.346;2022-12-05T00:19:05;2.50;99.90
24338;DHT22;12457;50.832;4.346;2022-12-05T00:21:34;2.50;99.90
24338;DHT22;12457;50.832;4.346;2022-12-05T00:24:01;2.50;99.90
24338;DHT22;12457;50.832;4.346;2022-12-05T00:26:28;2.40;99.90
24338;DHT22;12457;50.832;4.346;2022-12-05T00:28:56;2.30;99.90
24338;DHT22;12457;50.832;4.346;2022-12-05T00:31:23;2.20;99.90
24338;DHT22;12457;50.832;4.346;2022-12-05T00:33:50;2.20;99.90
24338;DHT22;12457;50.832;4.346;2022-12-05T00:36:21;2.20;99.90
24338;DHT22;12457;50.832;4.346;2022-12-05T00:38:47;2.20;99.90
24338;DHT22;12457;50.832;4.346;2022-12-05T00:41:15;2.20;99.90
24338;DHT22;12457;50.832;4.346;2022-12-05T00:43:42;2.10;99.90
24338;DHT22;12457;50.832;4.346;2022-12-05T00:46:12;2.10;99.90
24338;DHT22;12457;50.832;4.346;2022-12-05T00:48:38;2.10;99.90
24338;DHT22;12457;50.832;4.346;2022-12-05T00:51:07;2.10;99.90
24338;DHT22;12457;50.832;4.346;2022-12-05T00:53:33;2.00;99.90
24338;DHT22;12457;50.832;4.346;2022-12-05T00:56:08;2.00;99.90
24338;DHT22;12457;50.832;4.346;2022-12-05T00:58:35;1.90;99.90
24338;DHT22;12457;50.832;4.346;2022-12-05T01:01:08;2.00;99.90
24338;DHT22;12457;50.832;4.346;2022-12-05T01:03:34;2.00;99.90
24338;DHT22;12457;50.832;4.346;2022-12-05T01:06:00;2.10;99.90
24338;DHT22;12457;50.832;4.346;2022-12-05T01:08:26;2.00;99.90
24338;DHT22;12457;50.832;4.346;2022-12-05T01:10:55;2.10;99.90
24338;DHT22;12457;50.832;4.346;2022-12-05T01:13:22;2.00;99.90
24338;DHT22;12457;50.832;4.346;2022-12-05T01:15:47;2.10;99.90
24338;DHT22;12457;50.832;4.346;2022-12-05T01:18:13;2.00;99.90
24338;DHT22;12457;50.832;4.346;2022-12-05T01:20:40;2.10;99.90
24338;DHT22;12457;50.832;4.346;2022-12-05T01:23:06;2.20;99.90
24338;DHT22;12457;50.832;4.346;2022-12-05T01:25:32;2.20;99.90
24338;DHT22;12457;50.832;4.346;2022-12-05T01:27:58;2.20;99.90
24338;DHT22;12457;50.832;4.346;2022-12-05T01:30:24;2.20;99.90
24338;DHT22;12457;50.832;4.346;2022-12-05T01:32:50;2.20;99.90
24338;DHT22;12457;50.832;4.346;2022-12-05T01:35:15;2.30;99.90
24338;DHT22;12457;50.832;4.346;2022-12-05T01:37:41;2.30;99.90
24338;DHT22;12457;50.832;4.346;2022-12-05T01:40:07;2.30;99.90
24338;DHT22;12457;50.832;4.346;2022-12-05T01:42:33;2.30;99.90
24338;DHT22;12457;50.832;4.346;2022-12-05T01:45:07;2.30;99.90
24338;DHT22;12457;50.832;4.346;2022-12-05T01:47:35;2.20;99.90
24338;DHT22;12457;50.832;4.346;2022-12-05T01:50:01;2.20;99.90
24338;DHT22;12457;50.832;4.346;2022-12-05T01:52:28;2.20;99.90
24338;DHT22;12457;50.832;4.346;2022-12-05T01:55:08;2.20;99.90
24338;DHT22;12457;50.832;4.346;2022-12-05T01:57:35;2.20;99.90
24338;DHT22;12457;50.832;4.346;2022-12-05T02:00:08;2.30;99.90
24338;DHT22;12457;50.832;4.346;2022-12-05T02:02:34;2.40;99.90
24338;DHT22;12457;50.832;4.346;2022-12-05T02:05:04;2.40;99.90
24338;DHT22;12457;50.832;4.346;2022-12-05T02:07:31;2.40;99.90
24338;DHT22;12457;50.832;4.346;2022-12-05T02:09:58;2.60;99.90
24338;DHT22;12457;50.832;4.346;2022-12-05T02:12:24;2.50;99.90
24338;DHT22;12457;50.832;4.346;2022-12-05T02:17:46;2.40;99.90
24338;DHT22;12457;50.832;4.346;2022-12-05T02:20:35;2.40;99.90
24338;DHT22;12457;50.832;4.346;2022-12-05T02:34:19;2.40;99.90
24338;DHT22;12457;50.832;4.346;2022-12-05T02:36:59;2.40;99.90
24338;DHT22;12457;50.832;4.346;2022-12-05T02:45:16;2.60;99.90
24338;DHT22;12457;50.832;4.346;2022-12-05T02:47:50;2.60;99.90
24338;DHT22;12457;50.832;4.346;2022-12-05T02:50:22;2.60;99.90
24338;DHT22;12457;50.832;4.346;2022-12-05T02:52:51;2.60;99.90
24338;DHT22;12457;50.832;4.346;2022-12-05T02:55:19;2.60;99.90
24338;DHT22;12457;50.832;4.346;2022-12-05T02:57:49;2.60;99.90
24338;DHT22;12457;50.832;4.346;2022-12-05T03:00:17;2.70;99.90
24338;DHT22;12457;50.832;4.346;2022-12-05T03:02:43;2.60;99.90
24338;DHT22;12457;50.832;4.346;2022-12-05T03:07:56;2.50;99.90
24338;DHT22;12457;50.832;4.346;2022-12-05T03:10:24;2.50;99.90
24338;DHT22;12457;50.832;4.346;2022-12-05T03:12:55;2.50;99.90
24338;DHT22;12457;50.832;4.346;2022-12-05T03:15:26;2.60;99.90
24338;DHT22;12457;50.832;4.346;2022-12-05T03:20:41;2.70;99.90
24338;DHT22;12457;50.832;4.346;2022-12-05T03:23:12;2.70;99.90
24338;DHT22;12457;50.832;4.346;2022-12-05T03:28:24;2.70;99.90
24338;DHT22;12457;50.832;4.346;2022-12-05T03:30:55;2.70;99.90
24338;DHT22;12457;50.832;4.346;2022-12-05T03:33:27;2.60;99.90
24338;DHT22;12457;50.832;4.346;2022-12-05T03:36:02;2.60;99.90
24338;DHT22;12457;50.832;4.346;2022-12-05T03:44:08;2.70;99.90
24338;DHT22;12457;50.832;4.346;2022-12-05T03:46:55;2.50;99.90
24338;DHT22;12457;50.832;4.346;2022-12-05T03:49:33;2.80;99.90
24338;DHT22;12457;50.832;4.346;2022-12-05T03:52:07;2.80;99.90
24338;DHT22;12457;50.832;4.346;2022-12-05T03:54:46;2.70;99.90
24338;DHT22;12457;50.832;4.346;2022-12-05T03:57:32;2.80;99.90
24338;DHT22;12457;50.832;4.346;2022-12-05T04:00:11;2.80;99.90
24338;DHT22;12457;50.832;4.346;2022-12-05T04:02:56;2.70;99.90
24338;DHT22;12457;50.832;4.346;2022-12-05T04:08:13;2.70;99.90
24338;DHT22;12457;50.832;4.346;2022-12-05T04:10:43;2.70;99.90
24338;DHT22;12457;50.832;4.346;2022-12-05T04:13:38;2.80;99.90
24338;DHT22;12457;50.832;4.346;2022-12-05T04:16:28;2.80;99.90
24338;DHT22;12457;50.832;4.346;2022-12-05T04:21:52;2.70;99.90
24338;DHT22;12457;50.832;4.346;2022-12-05T04:24:22;2.80;99.90
24338;DHT22;12457;50.832;4.346;2022-12-05T04:27:35;2.80;99.90
24338;DHT22;12457;50.832;4.346;2022-12-05T04:35:28;2.80;99.90
24338;DHT22;12457;50.832;4.346;2022-12-05T04:38:01;2.70;99.90
24338;DHT22;12457;50.832;4.346;2022-12-05T04:40:40;2.70;99.90
24338;DHT22;12457;50.832;4.346;2022-12-05T04:43:09;2.60;99.90
24338;DHT22;12457;50.832;4.346;2022-12-05T04:45:38;2.60;99.90
24338;DHT22;12457;50.832;4.346;2022-12-05T04:48:11;2.60;99.90
24338;DHT22;12457;50.832;4.346;2022-12-05T04:50:38;2.70;99.90
24338;DHT22;12457;50.832;4.346;2022-12-05T04:53:05;2.80;99.90
24338;DHT22;12457;50.832;4.346;2022-12-05T04:55:33;2.80;99.90
24338;DHT22;12457;50.832;4.346;2022-12-05T04:58:10;2.80;99.90
24338;DHT22;12457;50.832;4.346;2022-12-05T05:03:30;2.60;99.90
24338;DHT22;12457;50.832;4.346;2022-12-05T05:05:57;2.50;99.90
24338;DHT22;12457;50.832;4.346;2022-12-05T05:08:25;2.50;99.90
24338;DHT22;12457;50.832;4.346;2022-12-05T05:11:13;2.50;99.90
24338;DHT22;12457;50.832;4.346;2022-12-05T05:13:39;2.50;99.90
24338;DHT22;12457;50.832;4.346;2022-12-05T05:16:05;2.50;99.90
24338;DHT22;12457;50.832;4.346;2022-12-05T05:18:31;2.60;99.90
24338;DHT22;12457;50.832;4.346;2022-12-05T05:20:57;2.60;99.90
24338;DHT22;12457;50.832;4.346;2022-12-05T05:23:23;2.60;99.90
24338;DHT22;12457;50.832;4.346;2022-12-05T05:25:53;2.70;99.90
24338;DHT22;12457;50.832;4.346;2022-12-05T05:28:20;2.60;99.90
24338;DHT22;12457;50.832;4.346;2022-12-05T05:30:45;2.70;99.90
24338;DHT22;12457;50.832;4.346;2022-12-05T05:33:11;2.60;99.90
24338;DHT22;12457;50.832;4.346;2022-12-05T05:35:37;2.70;99.90
24338;DHT22;12457;50.832;4.346;2022-12-05T05:38:03;2.70;99.90
24338;DHT22;12457;50.832;4.346;2022-12-05T05:40:28;2.60;99.90
24338;DHT22;12457;50.832;4.346;2022-12-05T05:42:54;2.70;99.90
24338;DHT22;12457;50.832;4.346;2022-12-05T05:45:20;2.70;99.90
24338;DHT22;12457;50.832;4.346;2022-12-05T05:47:48;2.60;99.90
24338;DHT22;12457;50.832;4.346;2022-12-05T05:50:14;2.70;99.90
24338;DHT22;12457;50.832;4.346;2022-12-05T05:52:40;2.80;99.90
24338;DHT22;12457;50.832;4.346;2022-12-05T05:55:07;2.80;99.90
24338;DHT22;12457;50.832;4.346;2022-12-05T05:57:34;2.80;99.90
24338;DHT22;12457;50.832;4.346;2022-12-05T06:00:00;2.90;99.90
24338;DHT22;12457;50.832;4.346;2022-12-05T06:02:31;3.00;99.90
24338;DHT22;12457;50.832;4.346;2022-12-05T06:04:56;3.00;99.90
24338;DHT22;12457;50.832;4.346;2022-12-05T06:07:22;2.90;99.90
24338;DHT22;12457;50.832;4.346;2022-12-05T06:09:48;3.00;99.90
24338;DHT22;12457;50.832;4.346;2022-12-05T06:12:13;3.10;99.90
24338;DHT22;12457;50.832;4.346;2022-12-05T06:14:39;3.00;99.90
24338;DHT22;12457;50.832;4.346;2022-12-05T06:17:04;3.10;99.90
24338;DHT22;12457;50.832;4.346;2022-12-05T06:19:30;3.00;99.90
24338;DHT22;12457;50.832;4.346;2022-12-05T06:21:56;3.10;99.90
24338;DHT22;12457;50.832;4.346;2022-12-05T06:24:21;3.00;99.90
24338;DHT22;12457;50.832;4.346;2022-12-05T06:26:47;3.00;99.90
24338;DHT22;12457;50.832;4.346;2022-12-05T06:29:12;2.90;99.90
24338;DHT22;12457;50.832;4.346;2022-12-05T06:31:40;2.90;99.90
24338;DHT22;12457;50.832;4.346;2022-12-05T06:34:05;2.90;99.90
24338;DHT22;12457;50.832;4.346;2022-12-05T06:36:31;2.90;99.90
24338;DHT22;12457;50.832;4.346;2022-12-05T06:38:57;2.90;99.90
24338;DHT22;12457;50.832;4.346;2022-12-05T06:41:23;2.90;99.90
24338;DHT22;12457;50.832;4.346;2022-12-05T06:43:51;2.80;99.90
24338;DHT22;12457;50.832;4.346;2022-12-05T06:46:18;2.70;99.90
24338;DHT22;12457;50.832;4.346;2022-12-05T06:48:44;2.70;99.90
24338;DHT22;12457;50.832;4.346;2022-12-05T06:51:12;2.80;99.90
24338;DHT22;12457;50.832;4.346;2022-12-05T06:53:39;2.90;99.90
24338;DHT22;12457;50.832;4.346;2022-12-05T06:56:06;2.90;99.90
24338;DHT22;12457;50.832;4.346;2022-12-05T06:58:32;2.90;99.90
24338;DHT22;12457;50.832;4.346;2022-12-05T07:00:58;2.90;99.90
24338;DHT22;12457;50.832;4.346;2022-12-05T07:03:42;2.90;99.90
24338;DHT22;12457;50.832;4.346;2022-12-05T07:06:08;2.90;99.90
24338;DHT22;12457;50.832;4.346;2022-12-05T07:08:35;3.10;99.90
24338;DHT22;12457;50.832;4.346;2022-12-05T07:11:01;3.00;99.90
24338;DHT22;12457;50.832;4.346;2022-12-05T07:13:27;3.10;99.90
24338;DHT22;12457;50.832;4.346;2022-12-05T07:15:53;3.10;99.90
24338;DHT22;12457;50.832;4.346;2022-12-05T07:18:18;3.10;99.90
24338;DHT22;12457;50.832;4.346;2022-12-05T07:20:44;3.10;99.90
24338;DHT22;12457;50.832;4.346;2022-12-05T07:23:19;3.10;99.90
24338;DHT22;12457;50.832;4.346;2022-12-05T07:25:45;3.20;99.90
24338;DHT22;12457;50.832;4.346;2022-12-05T07:28:10;3.30;99.90
24338;DHT22;12457;50.832;4.346;2022-12-05T07:30:36;3.30;99.90
24338;DHT22;12457;50.832;4.346;2022-12-05T07:33:02;3.40;99.90
24338;DHT22;12457;50.832;4.346;2022-12-05T07:35:28;3.50;99.90
24338;DHT22;12457;50.832;4.346;2022-12-05T07:37:54;3.40;99.90
24338;DHT22;12457;50.832;4.346;2022-12-05T07:40:19;3.40;99.90
24338;DHT22;12457;50.832;4.346;2022-12-05T07:42:47;3.30;99.90
24338;DHT22;12457;50.832;4.346;2022-12-05T07:45:13;3.30;99.90
24338;DHT22;12457;50.832;4.346;2022-12-05T07:47:39;3.30;99.90
24338;DHT22;12457;50.832;4.346;2022-12-05T07:50:05;3.40;99.90
24338;DHT22;12457;50.832;4.346;2022-12-05T07:52:31;3.30;99.90
24338;DHT22;12457;50.832;4.346;2022-12-05T07:54:56;3.20;99.90
24338;DHT22;12457;50.832;4.346;2022-12-05T07:57:22;3.20;99.90
24338;DHT22;12457;50.832;4.346;2022-12-05T07:59:49;3.20;99.90
24338;DHT22;12457;50.832;4.346;2022-12-05T08:02:15;3.30;99.90
24338;DHT22;12457;50.832;4.346;2022-12-05T08:04:42;3.30;99.90
24338;DHT22;12457;50.832;4.346;2022-12-05T08:07:09;3.30;99.90
24338;DHT22;12457;50.832;4.346;2022-12-05T08:09:35;3.30;99.90
24338;DHT22;12457;50.832;4.346;2022-12-05T08:12:01;3.30;99.90
24338;DHT22;12457;50.832;4.346;2022-12-05T08:14:26;3.40;99.90
24338;DHT22;12457;50.832;4.346;2022-12-05T08:16:52;3.40;99.90
24338;DHT22;12457;50.832;4.346;2022-12-05T08:19:18;3.50;99.90
24338;DHT22;12457;50.832;4.346;2022-12-05T08:21:44;3.50;99.90
24338;DHT22;12457;50.832;4.346;2022-12-05T08:24:10;3.60;99.90
24338;DHT22;12457;50.832;4.346;2022-12-05T08:26:37;3.60;99.90
24338;DHT22;12457;50.832;4.346;2022-12-05T08:29:08;3.50;99.90
24338;DHT22;12457;50.832;4.346;2022-12-05T08:31:42;3.30;99.90
24338;DHT22;12457;50.832;4.346;2022-12-05T08:34:10;3.30;99.90
24338;DHT22;12457;50.832;4.346;2022-12-05T08:36:36;3.30;99.90
24338;DHT22;12457;50.832;4.346;2022-12-05T08:39:04;3.40;99.90
24338;DHT22;12457;50.832;4.346;2022-12-05T08:41:31;3.40;99.90
24338;DHT22;12457;50.832;4.346;2022-12-05T08:43:58;3.30;99.90
24338;DHT22;12457;50.832;4.346;2022-12-05T08:46:24;3.30;99.90
24338;DHT22;12457;50.832;4.346;2022-12-05T08:48:50;3.40;99.90
24338;DHT22;12457;50.832;4.346;2022-12-05T08:51:16;3.50;99.90
24338;DHT22;12457;50.832;4.346;2022-12-05T08:53:41;3.50;99.90
24338;DHT22;12457;50.832;4.346;2022-12-05T08:56:08;3.60;99.90
24338;DHT22;12457;50.832;4.346;2022-12-05T08:58:34;3.60;99.90
24338;DHT22;12457;50.832;4.346;2022-12-05T09:01:19;3.70;99.90
24338;DHT22;12457;50.832;4.346;2022-12-05T09:03:46;3.70;99.90
24338;DHT22;12457;50.832;4.346;2022-12-05T09:06:17;3.70;99.90
24338;DHT22;12457;50.832;4.346;2022-12-05T09:08:44;3.70;99.90
24338;DHT22;12457;50.832;4.346;2022-12-05T09:11:13;3.80;99.90
24338;DHT22;12457;50.832;4.346;2022-12-05T09:13:40;3.60;99.90
24338;DHT22;12457;50.832;4.346;2022-12-05T09:16:11;3.50;99.90
24338;DHT22;12457;50.832;4.346;2022-12-05T09:18:37;3.60;99.90
24338;DHT22;12457;50.832;4.346;2022-12-05T09:21:06;3.50;99.90
24338;DHT22;12457;50.832;4.346;2022-12-05T09:23:33;3.50;99.90
24338;DHT22;12457;50.832;4.346;2022-12-05T09:25:59;3.50;99.90
24338;DHT22;12457;50.832;4.346;2022-12-05T09:28:28;3.50;99.90
24338;DHT22;12457;50.832;4.346;2022-12-05T09:30:58;3.60;99.90
24338;DHT22;12457;50.832;4.346;2022-12-05T09:33:25;3.70;99.90
24338;DHT22;12457;50.832;4.346;2022-12-05T09:35:51;3.80;99.90
24338;DHT22;12457;50.832;4.346;2022-12-05T09:38:17;3.90;99.90
24338;DHT22;12457;50.832;4.346;2022-12-05T09:40:43;3.90;99.90
24338;DHT22;12457;50.832;4.346;2022-12-05T09:43:24;3.90;99.90
24338;DHT22;12457;50.832;4.346;2022-12-05T09:46:01;3.90;99.90
24338;DHT22;12457;50.832;4.346;2022-12-05T09:48:29;4.00;99.90
24338;DHT22;12457;50.832;4.346;2022-12-05T09:50:59;4.10;99.90
24338;DHT22;12457;50.832;4.346;2022-12-05T09:53:34;4.20;99.90
24338;DHT22;12457;50.832;4.346;2022-12-05T09:56:05;4.20;99.90
24338;DHT22;12457;50.832;4.346;2022-12-05T09:58:41;4.20;99.90
24338;DHT22;12457;50.832;4.346;2022-12-05T10:01:25;4.10;99.90
24338;DHT22;12457;50.832;4.346;2022-12-05T10:04:00;4.10;99.90
24338;DHT22;12457;50.832;4.346;2022-12-05T10:06:33;4.10;99.90
24338;DHT22;12457;50.832;4.346;2022-12-05T10:11:57;4.20;99.90
24338;DHT22;12457;50.832;4.346;2022-12-05T10:17:34;4.30;99.90
24338;DHT22;12457;50.832;4.346;2022-12-05T10:20:14;4.20;99.90
24338;DHT22;12457;50.832;4.346;2022-12-05T10:22:57;4.20;99.90
24338;DHT22;12457;50.832;4.346;2022-12-05T10:25:25;4.20;99.90
24338;DHT22;12457;50.832;4.346;2022-12-05T10:27:58;4.30;99.90
24338;DHT22;12457;50.832;4.346;2022-12-05T10:30:32;4.30;99.90
24338;DHT22;12457;50.832;4.346;2022-12-05T10:33:14;4.20;99.90
24338;DHT22;12457;50.832;4.346;2022-12-05T10:35:42;4.40;99.90
24338;DHT22;12457;50.832;4.346;2022-12-05T10:38:19;4.30;99.90
24338;DHT22;12457;50.832;4.346;2022-12-05T10:40:50;4.40;99.90
24338;DHT22;12457;50.832;4.346;2022-12-05T10:43:24;4.40;99.90
24338;DHT22;12457;50.832;4.346;2022-12-05T10:45:50;4.30;99.90
24338;DHT22;12457;50.832;4.346;2022-12-05T10:48:18;4.30;99.90
24338;DHT22;12457;50.832;4.346;2022-12-05T10:50:45;4.30;99.90
24338;DHT22;12457;50.832;4.346;2022-12-05T10:53:16;4.20;99.90
24338;DHT22;12457;50.832;4.346;2022-12-05T10:55:44;4.40;99.90
24338;DHT22;12457;50.832;4.346;2022-12-05T10:58:15;4.40;99.90
24338;DHT22;12457;50.832;4.346;2022-12-05T11:00:44;4.50;99.90
24338;DHT22;12457;50.832;4.346;2022-12-05T11:03:38;4.50;99.90
24338;DHT22;12457;50.832;4.346;2022-12-05T11:06:23;4.60;99.90
24338;DHT22;12457;50.832;4.346;2022-12-05T11:09:13;4.50;99.90
24338;DHT22;12457;50.832;4.346;2022-12-05T11:12:11;4.50;99.90
24338;DHT22;12457;50.832;4.346;2022-12-05T11:14:39;4.30;99.90
24338;DHT22;12457;50.832;4.346;2022-12-05T11:17:05;4.30;99.90
24338;DHT22;12457;50.832;4.346;2022-12-05T11:19:34;4.30;99.90
24338;DHT22;12457;50.832;4.346;2022-12-05T11:22:00;4.50;99.90
24338;DHT22;12457;50.832;4.346;2022-12-05T11:24:36;4.50;99.90
24338;DHT22;12457;50.832;4.346;2022-12-05T11:27:29;4.50;99.90
24338;DHT22;12457;50.832;4.346;2022-12-05T11:30:17;4.40;99.90
24338;DHT22;12457;50.832;4.346;2022-12-05T11:32:44;4.30;99.90
24338;DHT22;12457;50.832;4.346;2022-12-05T11:37:49;4.50;99.90
24338;DHT22;12457;50.832;4.346;2022-12-05T11:40:43;4.50;99.90
24338;DHT22;12457;50.832;4.346;2022-12-05T11:48:31;4.40;99.90
24338;DHT22;12457;50.832;4.346;2022-12-05T11:53:57;4.50;99.90
24338;DHT22;12457;50.832;4.346;2022-12-05T11:56:42;4.60;99.90
24338;DHT22;12457;50.832;4.346;2022-12-05T12:02:04;4.70;99.90
24338;DHT22;12457;50.832;4.346;2022-12-05T12:04:55;4.60;99.90
24338;DHT22;12457;50.832;4.346;2022-12-05T12:10:49;4.70;99.90
24338;DHT22;12457;50.832;4.346;2022-12-05T12:16:11;4.60;99.90
24338;DHT22;12457;50.832;4.346;2022-12-05T12:29:41;4.50;99.90
24338;DHT22;12457;50.832;4.346;2022-12-05T12:35:22;4.70;99.90
24338;DHT22;12457;50.832;4.346;2022-12-05T12:38:10;4.80;99.90
24338;DHT22;12457;50.832;4.346;2022-12-05T12:49:06;4.70;99.90
24338;DHT22;12457;50.832;4.346;2022-12-05T12:51:52;4.70;99.90
24338;DHT22;12457;50.832;4.346;2022-12-05T12:54:21;4.60;99.90
24338;DHT22;12457;50.832;4.346;2022-12-05T12:59:53;4.50;99.90
24338;DHT22;12457;50.832;4.346;2022-12-05T13:05:22;4.50;99.90
24338;DHT22;12457;50.832;4.346;2022-12-05T13:08:12;4.50;99.90
24338;DHT22;12457;50.832;4.346;2022-12-05T13:10:44;4.50;99.90
24338;DHT22;12457;50.832;4.346;2022-12-05T13:13:27;4.40;99.90
24338;DHT22;12457;50.832;4.346;2022-12-05T13:15:57;4.50;99.90
24338;DHT22;12457;50.832;4.346;2022-12-05T13:18:25;4.50;99.90
24338;DHT22;12457;50.832;4.346;2022-12-05T13:20:56;4.50;99.90
24338;DHT22;12457;50.832;4.346;2022-12-05T13:23:26;4.50;99.90
24338;DHT22;12457;50.832;4.346;2022-12-05T13:25:53;4.50;99.90
24338;DHT22;12457;50.832;4.346;2022-12-05T13:28:32;4.50;99.90
24338;DHT22;12457;50.832;4.346;2022-12-05T13:30:59;4.50;99.90
24338;DHT22;12457;50.832;4.346;2022-12-05T13:33:35;4.40;99.90
24338;DHT22;12457;50.832;4.346;2022-12-05T13:36:09;4.50;99.90
24338;DHT22;12457;50.832;4.346;2022-12-05T13:39:02;4.50;99.90
24338;DHT22;12457;50.832;4.346;2022-12-05T13:41:52;4.50;99.90
24338;DHT22;12457;50.832;4.346;2022-12-05T13:50:33;4.60;99.90
24338;DHT22;12457;50.832;4.346;2022-12-05T13:56:00;4.50;99.90
24338;DHT22;12457;50.832;4.346;2022-12-05T13:58:36;4.50;99.90
24338;DHT22;12457;50.832;4.346;2022-12-05T14:09:00;4.70;99.90
24338;DHT22;12457;50.832;4.346;2022-12-05T14:11:26;4.60;99.90
24338;DHT22;12457;50.832;4.346;2022-12-05T14:13:52;4.60;99.90
24338;DHT22;12457;50.832;4.346;2022-12-05T14:22:15;4.60;99.90
24338;DHT22;12457;50.832;4.346;2022-12-05T14:27:57;4.50;99.90
24338;DHT22;12457;50.832;4.346;2022-12-05T14:30:58;4.50;99.90
24338;DHT22;12457;50.832;4.346;2022-12-05T14:33:27;4.40;99.90
24338;DHT22;12457;50.832;4.346;2022-12-05T14:35:53;4.60;99.90
24338;DHT22;12457;50.832;4.346;2022-12-05T14:38:27;4.60;99.90
24338;DHT22;12457;50.832;4.346;2022-12-05T14:40:54;4.70;99.90
24338;DHT22;12457;50.832;4.346;2022-12-05T14:50:49;4.70;99.90
24338;DHT22;12457;50.832;4.346;2022-12-05T14:53:31;4.60;99.90
24338;DHT22;12457;50.832;4.346;2022-12-05T14:56:30;4.70;99.90
24338;DHT22;12457;50.832;4.346;2022-12-05T14:59:22;4.70;99.90
24338;DHT22;12457;50.832;4.346;2022-12-05T15:01:56;4.70;99.90
24338;DHT22;12457;50.832;4.346;2022-12-05T15:04:40;4.80;99.90
24338;DHT22;12457;50.832;4.346;2022-12-05T15:07:12;4.90;99.90
24338;DHT22;12457;50.832;4.346;2022-12-05T15:09:53;4.90;99.90
24338;DHT22;12457;50.832;4.346;2022-12-05T15:12:32;5.00;99.90
24338;DHT22;12457;50.832;4.346;2022-12-05T15:17:52;5.10;99.90
24338;DHT22;12457;50.832;4.346;2022-12-05T15:20:28;5.10;99.90
24338;DHT22;12457;50.832;4.346;2022-12-05T15:22:57;5.00;99.90
24338;DHT22;12457;50.832;4.346;2022-12-05T15:25:30;5.00;99.90
24338;DHT22;12457;50.832;4.346;2022-12-05T15:28:05;5.10;99.90
24338;DHT22;12457;50.832;4.346;2022-12-05T15:30:34;5.10;99.90
24338;DHT22;12457;50.832;4.346;2022-12-05T15:33:00;5.00;99.90
24338;DHT22;12457;50.832;4.346;2022-12-05T15:35:29;4.90;99.90
24338;DHT22;12457;50.832;4.346;2022-12-05T15:38:04;4.90;99.90
24338;DHT22;12457;50.832;4.346;2022-12-05T15:40:34;5.00;99.90
24338;DHT22;12457;50.832;4.346;2022-12-05T15:46:19;5.00;99.90
24338;DHT22;12457;50.832;4.346;2022-12-05T15:48:48;5.10;99.90
24338;DHT22;12457;50.832;4.346;2022-12-05T15:51:15;5.20;99.90
24338;DHT22;12457;50.832;4.346;2022-12-05T15:53:48;5.20;99.90
24338;DHT22;12457;50.832;4.346;2022-12-05T15:56:29;5.20;99.90
24338;DHT22;12457;50.832;4.346;2022-12-05T15:59:07;5.20;99.90
24338;DHT22;12457;50.832;4.346;2022-12-05T16:01:42;5.20;99.90
24338;DHT22;12457;50.832;4.346;2022-12-05T16:04:29;5.20;99.90
24338;DHT22;12457;50.832;4.346;2022-12-05T16:07:02;5.20;99.90
24338;DHT22;12457;50.832;4.346;2022-12-05T16:09:33;5.30;99.90
24338;DHT22;12457;50.832;4.346;2022-12-05T16:12:05;5.40;99.90
24338;DHT22;12457;50.832;4.346;2022-12-05T16:14:39;5.30;99.90
24338;DHT22;12457;50.832;4.346;2022-12-05T16:17:13;5.30;99.90
24338;DHT22;12457;50.832;4.346;2022-12-05T16:19:40;5.30;99.90
24338;DHT22;12457;50.832;4.346;2022-12-05T16:24:40;5.50;99.90
24338;DHT22;12457;50.832;4.346;2022-12-05T16:27:20;5.50;99.90
24338;DHT22;12457;50.832;4.346;2022-12-05T16:32:39;5.50;99.90
24338;DHT22;12457;50.832;4.346;2022-12-05T16:35:41;5.50;99.90
24338;DHT22;12457;50.832;4.346;2022-12-05T16:45:45;5.70;99.90
24338;DHT22;12457;50.832;4.346;2022-12-05T16:48:23;5.90;99.90
24338;DHT22;12457;50.832;4.346;2022-12-05T16:50:51;5.90;99.90
24338;DHT22;12457;50.832;4.346;2022-12-05T16:53:21;5.80;99.90
24338;DHT22;12457;50.832;4.346;2022-12-05T16:55:51;5.80;99.90
24338;DHT22;12457;50.832;4.346;2022-12-05T16:58:21;5.90;99.90
24338;DHT22;12457;50.832;4.346;2022-12-05T17:00:47;5.90;99.90
24338;DHT22;12457;50.832;4.346;2022-12-05T17:03:14;5.90;99.90
24338;DHT22;12457;50.832;4.346;2022-12-05T17:05:40;5.90;99.90
24338;DHT22;12457;50.832;4.346;2022-12-05T17:08:05;5.80;99.90
24338;DHT22;12457;50.832;4.346;2022-12-05T17:10:31;5.90;99.90
24338;DHT22;12457;50.832;4.346;2022-12-05T17:12:57;6.00;99.90
24338;DHT22;12457;50.832;4.346;2022-12-05T17:15:28;6.00;99.90
24338;DHT22;12457;50.832;4.346;2022-12-05T17:17:55;6.00;99.90
24338;DHT22;12457;50.832;4.346;2022-12-05T17:20:20;5.90;99.90
24338;DHT22;12457;50.832;4.346;2022-12-05T17:22:47;5.80;99.90
24338;DHT22;12457;50.832;4.346;2022-12-05T17:25:29;5.80;99.90
24338;DHT22;12457;50.832;4.346;2022-12-05T17:27:56;5.80;99.90
24338;DHT22;12457;50.832;4.346;2022-12-05T17:30:23;5.90;99.90
24338;DHT22;12457;50.832;4.346;2022-12-05T17:32:49;5.90;99.90
24338;DHT22;12457;50.832;4.346;2022-12-05T17:35:17;6.00;99.90
24338;DHT22;12457;50.832;4.346;2022-12-05T17:37:43;6.20;99.90
24338;DHT22;12457;50.832;4.346;2022-12-05T17:40:09;6.20;99.90
24338;DHT22;12457;50.832;4.346;2022-12-05T17:42:35;6.10;99.90
24338;DHT22;12457;50.832;4.346;2022-12-05T17:45:02;6.10;99.90
24338;DHT22;12457;50.832;4.346;2022-12-05T17:47:28;6.00;99.90
24338;DHT22;12457;50.832;4.346;2022-12-05T17:49:54;6.10;99.90
24338;DHT22;12457;50.832;4.346;2022-12-05T17:52:19;6.00;99.90
24338;DHT22;12457;50.832;4.346;2022-12-05T17:54:45;6.00;99.90
24338;DHT22;12457;50.832;4.346;2022-12-05T17:57:11;6.00;99.90
24338;DHT22;12457;50.832;4.346;2022-12-05T17:59:36;6.10;99.90
24338;DHT22;12457;50.832;4.346;2022-12-05T18:02:02;6.10;99.90
24338;DHT22;12457;50.832;4.346;2022-12-05T18:04:29;6.00;99.90
24338;DHT22;12457;50.832;4.346;2022-12-05T18:06:55;6.00;99.90
24338;DHT22;12457;50.832;4.346;2022-12-05T18:09:21;6.00;99.90
24338;DHT22;12457;50.832;4.346;2022-12-05T18:11:48;6.10;99.90
24338;DHT22;12457;50.832;4.346;2022-12-05T18:14:13;6.20;99.90
24338;DHT22;12457;50.832;4.346;2022-12-05T18:16:39;6.20;99.90
24338;DHT22;12457;50.832;4.346;2022-12-05T18:19:05;6.20;99.90
24338;DHT22;12457;50.832;4.346;2022-12-05T18:21:32;6.10;99.90
24338;DHT22;12457;50.832;4.346;2022-12-05T18:23:58;6.00;99.90
24338;DHT22;12457;50.832;4.346;2022-12-05T18:26:24;6.10;99.90
24338;DHT22;12457;50.832;4.346;2022-12-05T18:28:50;6.10;99.90
24338;DHT22;12457;50.832;4.346;2022-12-05T18:31:18;6.10;99.90
24338;DHT22;12457;50.832;4.346;2022-12-05T18:33:44;6.10;99.90
24338;DHT22;12457;50.832;4.346;2022-12-05T18:36:13;5.90;99.90
24338;DHT22;12457;50.832;4.346;2022-12-05T18:38:40;6.00;99.90
24338;DHT22;12457;50.832;4.346;2022-12-05T18:41:08;6.00;99.90